Watertown International Airport
KART : now visible

Airfield :











YOU CAN JOIN US ON...

 
LOGIN :

Register | Disclaimer

   EN    FR    IT 

 









Legend :    VFR   Marginal VFR   IFR   Intensive IFR   Very Intensive IFR
Visi :
Ceiling :
>= 8 km
>= 3000ft
5 to 8 km
1000 to 3000 ft
1500m to 5 km
500 to 1000 ft
800 to 1500m
200 to 500 ft
< 800m
< 200 ft
Symbols :   Thunderstorms  Fog  Heavy snow  Heavy precipitations  Wind > 20 kt






- Airport Elevation : 325 ft
- IATA code : ART


KART - Watertown International

CURRENT METAR :
  • 110556Z AUTO 19003KT 7SM CLR 23/21 A2988 RMK AO2 SLP111 T02280206 10267 20200 58007 $

EXPIRED METARs :
  • 110456Z AUTO 00000KT 5SM BR CLR 21/19 A2990 RMK AO2 SLP118 T02110194 402890189 $
  • 110356Z AUTO 00000KT 7SM CLR 23/20 A2990 RMK AO2 SLP120 T02280200 $

TAF KART
Valid from the 11 at 06:00 until the 12 at 06:00 UTC


110520Z 1106/1206 17004KT 4SM BR BKN250
FM111300 20010KT P6SM SCT070 BKN200
FM111700 22013G20KT P6SM SCT050 BKN200
FM111900 23013G20KT P6SM VCTS BKN040CB
FM112200 24015G25KT P6SM SCT050 SCT250
FM120000 24008KT P6SM SCT050
KZBW FIR / North America



MET'MAP, your aeronautical weather chart ! - Copyright ORBIFLY December 2007 - Disclaimer

ORBIFLY MET'MAP TEAM :

Programming & Development : Alexandra Zaïnal
Concept & original design : Baudouin d'Aumeries
Assistance for programming : Marc-Olivier Méhu
Technical & hardware support : Manuel Goepfert

Contact : metmap@orbifly.com




SOURCES & CREDITS :

   NOAA       Earth
Advisory